Time;durP1;ratioP1;P1;durP2;ratioP2;P2;SDS_P1;SDS_P2;PMS_P1;PMS_P2;Temp;Humidity;BMP_temperature;BMP_pressure;BME280_temperature;BME280_humidity;BME280_pressure;Samples;Min_cycle;Max_cycle;Signal;HPM_P1;HPM_P2
2023/12/29 00:01:43;;;;;;;;;;;14.60;62.70;;;;;;10236730;28;92668;-43
2023/12/29 00:06:45;;;;;;;;;;;14.60;63.20;;;;;;10251879;28;94639;-43
2023/12/29 00:12:00;;;;;;;;;;;14.60;62.90;;;;;;10240828;28;94503;-43
2023/12/29 00:17:02;;;;;;;;;;;14.60;62.70;;;;;;10227499;28;93785;-44
2023/12/29 00:22:04;;;;;;;;;;;14.60;62.30;;;;;;10232705;28;93414;-43
2023/12/29 00:27:06;;;;;;;;;;;14.60;62.20;;;;;;10236016;28;94677;-45
2023/12/29 00:32:08;;;;;;;;;;;14.60;61.90;;;;;;10232349;28;96194;-45
2023/12/29 00:37:10;;;;;;;;;;;14.60;61.70;;;;;;10235858;28;93405;-44
2023/12/29 00:42:12;;;;;;;;;;;14.60;61.60;;;;;;10240311;28;94996;-44
2023/12/29 00:47:13;;;;;;;;;;;14.60;61.40;;;;;;10230069;28;93408;-44
2023/12/29 00:52:15;;;;;;;;;;;14.60;61.70;;;;;;10222710;28;93649;-43
2023/12/29 00:57:17;;;;;;;;;;;14.60;62.10;;;;;;10234324;28;94476;-44
2023/12/29 01:02:19;;;;;;;;;;;14.60;62.40;;;;;;10234680;28;93546;-43
2023/12/29 01:07:21;;;;;;;;;;;14.60;62.30;;;;;;10228981;28;92648;-45
2023/12/29 01:12:23;;;;;;;;;;;14.60;61.90;;;;;;10233171;28;94530;-43
2023/12/29 01:17:27;;;;;;;;;;;14.60;61.70;;;;;;10207376;28;93604;-43
2023/12/29 01:22:29;;;;;;;;;;;14.50;61.50;;;;;;10241796;28;96832;-45
2023/12/29 01:27:30;;;;;;;;;;;14.60;61.40;;;;;;10221922;28;94434;-44
2023/12/29 01:32:33;;;;;;;;;;;14.60;61.20;;;;;;10210010;28;93426;-43
2023/12/29 01:37:34;;;;;;;;;;;14.60;61.10;;;;;;10230516;28;93649;-46
2023/12/29 01:42:36;;;;;;;;;;;14.60;61.00;;;;;;10220649;28;94032;-45
2023/12/29 01:47:38;;;;;;;;;;;14.50;61.30;;;;;;10207579;28;97001;-44
2023/12/29 01:52:41;;;;;;;;;;;14.50;61.80;;;;;;10227244;28;93507;-44
2023/12/29 01:57:42;;;;;;;;;;;14.50;62.00;;;;;;10234341;28;92887;-44
2023/12/29 02:02:46;;;;;;;;;;;14.50;62.10;;;;;;10603201;22;94308;-43
2023/12/29 02:07:49;;;;;;;;;;;14.60;61.90;;;;;;10219191;28;94626;-44
2023/12/29 02:12:54;;;;;;;;;;;14.60;61.50;;;;;;10218600;28;95814;-44
2023/12/29 02:17:59;;;;;;;;;;;14.60;61.40;;;;;;10212715;28;94636;-44
2023/12/29 02:23:02;;;;;;;;;;;14.60;61.20;;;;;;10232254;28;94498;-45
2023/12/29 02:28:10;;;;;;;;;;;14.60;60.90;;;;;;10244410;28;94510;-44
2023/12/29 02:33:18;;;;;;;;;;;14.60;60.60;;;;;;10234994;28;94544;-45
2023/12/29 02:38:20;;;;;;;;;;;14.60;60.70;;;;;;10242549;28;93424;-48
2023/12/29 02:43:22;;;;;;;;;;;14.60;61.00;;;;;;10244134;28;95695;-44
2023/12/29 02:48:24;;;;;;;;;;;14.60;61.70;;;;;;10233255;28;93822;-42
2023/12/29 02:53:25;;;;;;;;;;;14.60;61.60;;;;;;10244498;28;93603;-41
2023/12/29 02:58:27;;;;;;;;;;;14.60;61.40;;;;;;10244663;28;94463;-43
2023/12/29 03:03:29;;;;;;;;;;;14.60;61.20;;;;;;10240769;28;96939;-45
2023/12/29 03:08:32;;;;;;;;;;;14.60;61.10;;;;;;10245470;28;94620;-43
2023/12/29 03:13:33;;;;;;;;;;;14.60;60.80;;;;;;10232277;28;93469;-43
2023/12/29 03:18:39;;;;;;;;;;;14.70;60.60;;;;;;10232532;28;95454;-43
2023/12/29 03:23:41;;;;;;;;;;;14.60;60.40;;;;;;10232251;28;93401;-45
2023/12/29 03:28:43;;;;;;;;;;;14.70;60.40;;;;;;10245589;28;92907;-44
2023/12/29 03:33:45;;;;;;;;;;;14.70;60.40;;;;;;10249702;28;94385;-42
2023/12/29 03:38:46;;;;;;;;;;;14.60;60.80;;;;;;10233448;28;92878;-43
2023/12/29 03:43:48;;;;;;;;;;;14.60;61.30;;;;;;10248886;28;93677;-44
2023/12/29 03:48:50;;;;;;;;;;;14.60;61.30;;;;;;10250710;28;93421;-42
2023/12/29 03:53:52;;;;;;;;;;;14.60;61.10;;;;;;10247152;28;95901;-43
2023/12/29 03:58:53;;;;;;;;;;;14.60;60.90;;;;;;10245769;28;93583;-42
2023/12/29 04:03:55;;;;;;;;;;;14.60;60.70;;;;;;10246294;28;93409;-47
2023/12/29 04:08:57;;;;;;;;;;;14.60;60.50;;;;;;10249897;28;94784;-43
2023/12/29 04:13:59;;;;;;;;;;;14.60;60.40;;;;;;10248218;28;94640;-43
2023/12/29 04:19:01;;;;;;;;;;;14.60;60.20;;;;;;10262339;28;93558;-44
2023/12/29 04:24:02;;;;;;;;;;;14.60;60.20;;;;;;10245749;28;94703;-45
2023/12/29 04:29:04;;;;;;;;;;;14.60;60.30;;;;;;10250551;28;92783;-43
2023/12/29 04:34:06;;;;;;;;;;;14.60;60.70;;;;;;10249359;28;94484;-44
2023/12/29 04:39:10;;;;;;;;;;;14.60;61.20;;;;;;10248674;28;94294;-43
2023/12/29 04:44:12;;;;;;;;;;;14.50;61.40;;;;;;10246241;28;95857;-43
2023/12/29 04:49:14;;;;;;;;;;;14.50;61.50;;;;;;10248297;28;93417;-42
2023/12/29 04:54:16;;;;;;;;;;;14.60;61.70;;;;;;10248160;28;93424;-43
2023/12/29 04:59:17;;;;;;;;;;;14.50;61.70;;;;;;10234709;28;93427;-43
2023/12/29 05:04:19;;;;;;;;;;;14.60;61.80;;;;;;10247022;28;93473;-44
2023/12/29 05:09:22;;;;;;;;;;;14.50;61.90;;;;;;10246107;28;94797;-43
2023/12/29 05:14:24;;;;;;;;;;;14.50;62.00;;;;;;10247600;28;93156;-44
2023/12/29 05:19:25;;;;;;;;;;;14.50;62.10;;;;;;10230230;28;92706;-47
2023/12/29 05:24:27;;;;;;;;;;;14.50;62.10;;;;;;10237131;28;93438;-45
2023/12/29 05:29:29;;;;;;;;;;;14.50;62.20;;;;;;10247562;28;94437;-44
2023/12/29 05:34:31;;;;;;;;;;;14.50;62.40;;;;;;10244416;28;95771;-45
2023/12/29 05:39:32;;;;;;;;;;;14.50;62.40;;;;;;10243151;28;94131;-47
2023/12/29 05:44:37;;;;;;;;;;;14.50;62.60;;;;;;10246367;28;94453;-47
2023/12/29 05:49:39;;;;;;;;;;;14.50;62.60;;;;;;10247252;28;94784;-44
2023/12/29 05:54:41;;;;;;;;;;;14.50;62.70;;;;;;10245170;28;92694;-42
2023/12/29 05:59:43;;;;;;;;;;;14.50;62.80;;;;;;10246875;28;94573;-42
2023/12/29 06:04:45;;;;;;;;;;;14.40;62.80;;;;;;10245812;28;94569;-43
2023/12/29 06:09:47;;;;;;;;;;;14.40;63.00;;;;;;10243225;28;93502;-42
2023/12/29 06:14:48;;;;;;;;;;;14.50;63.10;;;;;;10246219;28;93530;-48
2023/12/29 06:19:50;;;;;;;;;;;14.50;63.00;;;;;;10245741;28;92941;-42
2023/12/29 06:24:52;;;;;;;;;;;14.50;63.10;;;;;;10230017;28;95837;-45
2023/12/29 06:29:53;;;;;;;;;;;14.50;63.10;;;;;;10245194;28;94398;-43
2023/12/29 06:34:55;;;;;;;;;;;14.50;63.10;;;;;;10233364;28;93472;-43
2023/12/29 06:39:57;;;;;;;;;;;14.50;63.20;;;;;;10245079;28;93761;-49
2023/12/29 06:44:58;;;;;;;;;;;14.50;63.20;;;;;;10245839;28;94453;-45
2023/12/29 06:50:02;;;;;;;;;;;14.50;63.20;;;;;;10245056;28;93368;-43
2023/12/29 06:55:04;;;;;;;;;;;14.50;63.20;;;;;;10231810;28;95015;-44
2023/12/29 07:00:06;;;;;;;;;;;14.50;63.30;;;;;;10245546;28;93265;-63
2023/12/29 07:05:08;;;;;;;;;;;14.60;63.30;;;;;;10249096;28;92543;-42
2023/12/29 07:10:13;;;;;;;;;;;14.50;63.30;;;;;;10251444;28;93574;-43
2023/12/29 07:15:15;;;;;;;;;;;14.50;63.30;;;;;;10248961;28;95798;-45
2023/12/29 07:20:17;;;;;;;;;;;14.60;63.40;;;;;;10250639;28;93300;-42
2023/12/29 07:25:19;;;;;;;;;;;14.50;63.30;;;;;;10239396;28;93978;-45
2023/12/29 07:30:21;;;;;;;;;;;14.50;63.30;;;;;;10249790;28;94766;-43
2023/12/29 07:35:23;;;;;;;;;;;14.60;63.40;;;;;;10251661;28;93493;-46
2023/12/29 07:40:25;;;;;;;;;;;14.60;63.50;;;;;;10250263;28;92904;-43
2023/12/29 07:45:27;;;;;;;;;;;14.60;63.60;;;;;;10251015;28;92539;-43
2023/12/29 07:50:29;;;;;;;;;;;14.50;63.40;;;;;;10251066;28;92049;-46
2023/12/29 07:55:31;;;;;;;;;;;14.60;63.50;;;;;;10250171;28;94552;-42
2023/12/29 08:00:33;;;;;;;;;;;14.60;63.50;;;;;;10250906;28;94004;-46
2023/12/29 08:05:35;;;;;;;;;;;14.60;63.50;;;;;;10244015;28;96284;-42
2023/12/29 08:10:37;;;;;;;;;;;14.60;63.50;;;;;;10261003;28;94628;-44
2023/12/29 08:15:39;;;;;;;;;;;14.60;63.60;;;;;;10235610;28;94089;-42
2023/12/29 08:20:41;;;;;;;;;;;14.50;63.60;;;;;;10249641;28;93474;-48
2023/12/29 08:25:42;;;;;;;;;;;14.60;63.60;;;;;;10237350;28;94399;-43
2023/12/29 08:30:47;;;;;;;;;;;14.50;63.60;;;;;;10250060;28;94618;-43
2023/12/29 08:35:49;;;;;;;;;;;14.60;63.70;;;;;;10248390;28;93943;-43
2023/12/29 08:40:52;;;;;;;;;;;14.60;63.70;;;;;;10248413;28;94305;-43
2023/12/29 08:45:54;;;;;;;;;;;14.60;63.80;;;;;;10248569;28;94442;-44
2023/12/29 08:50:56;;;;;;;;;;;14.60;63.80;;;;;;10249116;28;94634;-41
2023/12/29 08:55:58;;;;;;;;;;;14.50;63.70;;;;;;10245492;28;95865;-42
2023/12/29 09:01:00;;;;;;;;;;;14.50;63.80;;;;;;10241731;28;93405;-42
2023/12/29 09:06:03;;;;;;;;;;;14.50;63.90;;;;;;10248871;28;94755;-44
2023/12/29 09:11:05;;;;;;;;;;;14.50;63.90;;;;;;10252897;28;94507;-44
2023/12/29 09:16:06;;;;;;;;;;;14.50;64.10;;;;;;10247384;28;92910;-42
2023/12/29 09:21:08;;;;;;;;;;;14.50;64.10;;;;;;10252814;28;94485;-44
2023/12/29 09:26:10;;;;;;;;;;;14.50;64.00;;;;;;10239845;28;94706;-44
2023/12/29 09:31:12;;;;;;;;;;;14.50;64.00;;;;;;10248580;28;92559;-44
2023/12/29 09:36:14;;;;;;;;;;;14.50;64.00;;;;;;10247794;28;93927;-43
2023/12/29 09:41:17;;;;;;;;;;;14.50;64.10;;;;;;10247164;28;94508;-43
2023/12/29 09:46:20;;;;;;;;;;;14.50;64.20;;;;;;10242163;28;96874;-42
2023/12/29 09:51:24;;;;;;;;;;;14.50;64.20;;;;;;10246516;28;93464;-43
2023/12/29 09:56:25;;;;;;;;;;;14.50;64.20;;;;;;10245147;28;94412;-43
2023/12/29 10:01:29;;;;;;;;;;;14.50;64.20;;;;;;10246857;28;94454;-50
2023/12/29 10:06:34;;;;;;;;;;;14.50;64.30;;;;;;10246579;28;93995;-43
2023/12/29 10:11:39;;;;;;;;;;;14.50;64.30;;;;;;10245942;28;94131;-47
2023/12/29 10:16:45;;;;;;;;;;;14.50;64.30;;;;;;10245903;28;93737;-42
2023/12/29 10:21:48;;;;;;;;;;;14.50;64.30;;;;;;10239563;28;94287;-42
2023/12/29 10:26:52;;;;;;;;;;;14.50;64.40;;;;;;10242157;28;94396;-42
2023/12/29 10:31:54;;;;;;;;;;;14.50;64.40;;;;;;10245899;28;94522;-44
2023/12/29 10:36:57;;;;;;;;;;;14.50;64.50;;;;;;10241560;28;95975;-45
2023/12/29 10:42:06;;;;;;;;;;;14.50;64.60;;;;;;10245064;28;94578;-41
2023/12/29 10:47:11;;;;;;;;;;;14.50;64.60;;;;;;10245327;28;94472;-41
2023/12/29 10:52:14;;;;;;;;;;;14.50;64.70;;;;;;10244754;28;93557;-43
2023/12/29 10:57:16;;;;;;;;;;;14.50;64.70;;;;;;10234525;28;93963;-65
2023/12/29 11:02:18;;;;;;;;;;;14.50;64.70;;;;;;10245262;28;94432;-41
2023/12/29 11:07:35;;;;;;;;;;;14.60;64.80;;;;;;10244368;28;93711;-43
2023/12/29 11:12:37;;;;;;;;;;;14.60;64.80;;;;;;10244915;28;94460;-47
2023/12/29 11:17:41;;;;;;;;;;;14.60;64.80;;;;;;10245439;28;95167;-45
2023/12/29 11:22:43;;;;;;;;;;;14.60;64.80;;;;;;10232311;28;94351;-43
2023/12/29 11:27:45;;;;;;;;;;;14.60;64.80;;;;;;10242538;28;97174;-42
2023/12/29 11:32:51;;;;;;;;;;;14.60;64.70;;;;;;10244247;28;93593;-48
2023/12/29 11:38:02;;;;;;;;;;;14.60;64.80;;;;;;10244270;28;94342;-44
2023/12/29 11:43:07;;;;;;;;;;;14.60;64.80;;;;;;10244504;28;93532;-43
2023/12/29 11:48:11;;;;;;;;;;;14.60;64.80;;;;;;10243836;28;93440;-47
2023/12/29 11:53:31;;;;;;;;;;;14.60;64.70;;;;;;10250325;28;94465;-45
2023/12/29 11:58:32;;;;;;;;;;;14.60;64.80;;;;;;10241430;28;93594;-42
2023/12/29 12:03:35;;;;;;;;;;;14.60;64.70;;;;;;10251540;28;95625;-43
2023/12/29 12:08:39;;;;;;;;;;;14.60;64.70;;;;;;10250139;28;93385;-43
2023/12/29 12:13:42;;;;;;;;;;;14.60;64.70;;;;;;10251338;28;94199;-43
2023/12/29 12:18:44;;;;;;;;;;;14.60;64.80;;;;;;10247609;28;96997;-43
2023/12/29 12:23:46;;;;;;;;;;;14.60;64.80;;;;;;10240387;28;94492;-43
2023/12/29 12:28:51;;;;;;;;;;;14.60;64.80;;;;;;10248948;28;93594;-44
2023/12/29 12:33:56;;;;;;;;;;;14.60;64.80;;;;;;10248859;28;93527;-46
2023/12/29 12:38:58;;;;;;;;;;;14.60;64.90;;;;;;10250199;28;92590;-43
2023/12/29 12:44:09;;;;;;;;;;;14.50;64.80;;;;;;10248660;28;94504;-43
2023/12/29 12:49:11;;;;;;;;;;;14.60;64.90;;;;;;10248170;28;94672;-47
2023/12/29 12:54:13;;;;;;;;;;;14.60;64.90;;;;;;10250206;28;93764;-49
2023/12/29 12:59:16;;;;;;;;;;;14.60;64.90;;;;;;10248238;28;94464;-44
2023/12/29 13:04:18;;;;;;;;;;;14.60;64.90;;;;;;10245511;28;94475;-43
2023/12/29 13:09:20;;;;;;;;;;;14.50;64.90;;;;;;10245957;28;96525;-44
2023/12/29 13:14:22;;;;;;;;;;;14.50;64.90;;;;;;10246871;28;93848;-45
2023/12/29 13:19:24;;;;;;;;;;;14.50;64.90;;;;;;10249759;28;93624;-42
2023/12/29 13:24:27;;;;;;;;;;;14.50;64.90;;;;;;10237420;28;93799;-42
2023/12/29 13:29:29;;;;;;;;;;;14.50;65.00;;;;;;10242082;28;93751;-48
2023/12/29 13:34:38;;;;;;;;;;;14.50;64.90;;;;;;10241089;28;93589;-44
2023/12/29 13:39:42;;;;;;;;;;;14.60;64.90;;;;;;10247409;28;94703;-41
2023/12/29 13:44:44;;;;;;;;;;;14.60;64.90;;;;;;10248665;28;92776;-60
2023/12/29 13:49:48;;;;;;;;;;;14.60;64.90;;;;;;10245525;28;94437;-47
2023/12/29 13:54:50;;;;;;;;;;;14.60;64.80;;;;;;10247137;28;94600;-46
2023/12/29 13:59:52;;;;;;;;;;;14.50;64.80;;;;;;10245185;28;96452;-42
2023/12/29 14:05:13;;;;;;;;;;;14.60;65.90;;;;;;10246759;28;94389;-42
2023/12/29 14:10:15;;;;;;;;;;;14.50;64.80;;;;;;10246526;28;94008;-43
2023/12/29 14:15:17;;;;;;;;;;;14.50;64.80;;;;;;10247823;28;94426;-43
2023/12/29 14:20:34;;;;;;;;;;;14.50;64.90;;;;;;10246883;28;93456;-44
2023/12/29 14:25:37;;;;;;;;;;;14.50;65.00;;;;;;10236326;28;93602;-44
2023/12/29 14:30:39;;;;;;;;;;;14.50;65.00;;;;;;10245394;28;93483;-43
2023/12/29 14:35:40;;;;;;;;;;;14.50;65.00;;;;;;10246851;28;91910;-43
2023/12/29 14:40:44;;;;;;;;;;;14.50;65.00;;;;;;10247065;28;94583;-43
2023/12/29 14:45:46;;;;;;;;;;;14.50;65.00;;;;;;10244267;28;94139;-42
2023/12/29 14:50:47;;;;;;;;;;;14.50;65.00;;;;;;10242957;28;96875;-42
2023/12/29 14:55:49;;;;;;;;;;;14.50;65.00;;;;;;10245507;28;93519;-47
2023/12/29 15:00:51;;;;;;;;;;;14.40;65.00;;;;;;10245452;28;94067;-45
2023/12/29 15:05:53;;;;;;;;;;;14.50;65.10;;;;;;10244792;28;95636;-46
2023/12/29 15:10:54;;;;;;;;;;;14.50;65.10;;;;;;10244522;28;94335;-42
2023/12/29 15:16:00;;;;;;;;;;;14.50;65.00;;;;;;10244508;28;93478;-46
2023/12/29 15:21:02;;;;;;;;;;;14.50;64.90;;;;;;10243134;28;93482;-44
2023/12/29 15:26:03;;;;;;;;;;;14.50;64.80;;;;;;10241023;28;93148;-43
2023/12/29 15:31:05;;;;;;;;;;;14.50;64.80;;;;;;10251651;28;94226;-42
2023/12/29 15:36:11;;;;;;;;;;;14.50;64.80;;;;;;10251303;28;94659;-43
2023/12/29 15:41:13;;;;;;;;;;;14.50;64.80;;;;;;10249165;28;95865;-44
2023/12/29 15:46:15;;;;;;;;;;;14.50;64.70;;;;;;10252198;28;94482;-42
2023/12/29 15:51:17;;;;;;;;;;;14.50;64.80;;;;;;10251729;28;93990;-45
2023/12/29 15:56:19;;;;;;;;;;;14.50;64.70;;;;;;10250058;28;93161;-42
2023/12/29 16:01:26;;;;;;;;;;;14.50;64.60;;;;;;10250019;28;94560;-42
2023/12/29 16:06:28;;;;;;;;;;;14.50;64.60;;;;;;10226252;28;93329;-42
2023/12/29 16:11:30;;;;;;;;;;;14.50;64.60;;;;;;10249305;28;93477;-42
2023/12/29 16:16:32;;;;;;;;;;;14.50;64.60;;;;;;10250810;28;93861;-43
2023/12/29 16:21:37;;;;;;;;;;;14.50;64.60;;;;;;10244884;28;94445;-45
2023/12/29 16:26:42;;;;;;;;;;;14.50;65.60;;;;;;10258578;28;93559;-43
2023/12/29 16:31:48;;;;;;;;;;;14.50;64.50;;;;;;10246872;28;95857;-44
2023/12/29 16:36:59;;;;;;;;;;;14.50;64.50;;;;;;10248117;28;93433;-43
2023/12/29 16:42:03;;;;;;;;;;;14.60;64.50;;;;;;10249422;28;93360;-44
2023/12/29 16:47:05;;;;;;;;;;;14.60;64.30;;;;;;10241028;28;94588;-47
2023/12/29 16:52:07;;;;;;;;;;;14.60;64.20;;;;;;10248829;28;93449;-46
2023/12/29 16:57:08;;;;;;;;;;;14.60;64.20;;;;;;10247644;28;94605;-63
2023/12/29 17:02:10;;;;;;;;;;;14.50;64.10;;;;;;10247875;28;95077;-44
2023/12/29 17:07:12;;;;;;;;;;;14.50;64.10;;;;;;10255389;28;92824;-42
2023/12/29 17:12:14;;;;;;;;;;;14.50;64.20;;;;;;10247714;28;93661;-46
2023/12/29 17:17:16;;;;;;;;;;;14.50;64.40;;;;;;10247669;28;93759;-46
2023/12/29 17:22:17;;;;;;;;;;;14.70;64.60;;;;;;10235890;28;95872;-43
2023/12/29 17:27:19;;;;;;;;;;;14.90;64.40;;;;;;10246208;28;94034;-47
2023/12/29 17:32:23;;;;;;;;;;;15.10;63.90;;;;;;10248013;28;93470;-49
2023/12/29 17:37:28;;;;;;;;;;;15.40;63.30;;;;;;10247285;28;93497;-47
2023/12/29 17:42:29;;;;;;;;;;;15.70;62.80;;;;;;10247925;28;93572;-43
2023/12/29 17:47:31;;;;;;;;;;;15.90;62.30;;;;;;10251548;28;94611;-44
2023/12/29 17:52:32;;;;;;;;;;;16.20;61.80;;;;;;10235685;28;94633;-42
2023/12/29 17:57:36;;;;;;;;;;;16.40;61.40;;;;;;10247780;28;92674;-47
2023/12/29 18:02:38;;;;;;;;;;;16.60;61.10;;;;;;10246467;28;93547;-43
2023/12/29 18:07:40;;;;;;;;;;;16.70;60.70;;;;;;10245642;28;93541;-44
2023/12/29 18:12:42;;;;;;;;;;;16.90;60.50;;;;;;10244617;28;95858;-43
2023/12/29 18:17:46;;;;;;;;;;;17.00;60.20;;;;;;10244876;28;114205;-43
2023/12/29 18:22:49;;;;;;;;;;;17.20;60.00;;;;;;10236040;28;93606;-43
2023/12/29 18:27:51;;;;;;;;;;;17.30;59.80;;;;;;10244933;28;94581;-43
2023/12/29 18:32:53;;;;;;;;;;;17.30;59.60;;;;;;10245715;28;93431;-43
2023/12/29 18:37:54;;;;;;;;;;;17.40;59.60;;;;;;10243766;28;93463;-42
2023/12/29 18:42:57;;;;;;;;;;;17.40;59.40;;;;;;10246091;28;93631;-42
2023/12/29 18:48:00;;;;;;;;;;;17.50;60.30;;;;;;10246492;28;92776;-46
2023/12/29 18:53:04;;;;;;;;;;;17.60;59.20;;;;;;10245692;28;94456;-44
2023/12/29 18:58:05;;;;;;;;;;;17.70;59.10;;;;;;10245562;28;94483;-48
2023/12/29 19:03:07;;;;;;;;;;;17.80;59.00;;;;;;10249772;28;95840;-47
2023/12/29 19:08:09;;;;;;;;;;;17.80;58.80;;;;;;10242510;28;92678;-45
2023/12/29 19:13:10;;;;;;;;;;;17.90;58.80;;;;;;10255084;28;94467;-49
2023/12/29 19:18:12;;;;;;;;;;;18.00;58.60;;;;;;10252608;28;94896;-45
2023/12/29 19:23:14;;;;;;;;;;;18.10;58.60;;;;;;10238712;28;94514;-43
2023/12/29 19:28:16;;;;;;;;;;;18.20;58.50;;;;;;10251201;28;94192;-44
2023/12/29 19:33:18;;;;;;;;;;;18.20;58.40;;;;;;10266391;28;94460;-42
2023/12/29 19:38:21;;;;;;;;;;;18.20;58.30;;;;;;10252778;28;93723;-48
2023/12/29 19:43:22;;;;;;;;;;;18.30;58.30;;;;;;10249489;28;93457;-47
2023/12/29 19:48:24;;;;;;;;;;;18.30;58.10;;;;;;10252795;28;94273;-42
2023/12/29 19:53:27;;;;;;;;;;;18.40;58.00;;;;;;10248092;28;97022;-44
2023/12/29 19:58:29;;;;;;;;;;;18.40;57.90;;;;;;10239428;28;93256;-45
2023/12/29 20:03:34;;;;;;;;;;;18.30;58.00;;;;;;10248844;28;94238;-43
2023/12/29 20:08:36;;;;;;;;;;;18.20;58.10;;;;;;10250567;28;94181;-44
2023/12/29 20:13:37;;;;;;;;;;;18.20;58.40;;;;;;10247836;28;93970;-43
2023/12/29 20:18:39;;;;;;;;;;;18.20;58.50;;;;;;10250345;28;94577;-44
2023/12/29 20:23:41;;;;;;;;;;;18.20;58.40;;;;;;10240556;28;94859;-47
2023/12/29 20:28:43;;;;;;;;;;;18.30;58.20;;;;;;10250906;28;93675;-43
2023/12/29 20:33:45;;;;;;;;;;;18.40;58.10;;;;;;10248792;28;94568;-44
2023/12/29 20:38:50;;;;;;;;;;;18.50;58.00;;;;;;10237790;28;94519;-42
2023/12/29 20:43:53;;;;;;;;;;;18.50;57.90;;;;;;10246507;28;97043;-43
2023/12/29 20:48:55;;;;;;;;;;;18.40;57.80;;;;;;10260202;28;94417;-42
2023/12/29 20:53:57;;;;;;;;;;;18.30;57.90;;;;;;10250788;28;94664;-44
2023/12/29 20:58:59;;;;;;;;;;;18.20;58.20;;;;;;10248911;28;94652;-42
2023/12/29 21:04:00;;;;;;;;;;;18.00;58.50;;;;;;10247500;28;93416;-44
2023/12/29 21:09:03;;;;;;;;;;;17.80;58.70;;;;;;10248392;28;94630;-44
2023/12/29 21:14:05;;;;;;;;;;;17.70;59.10;;;;;;10248107;28;94503;-45
2023/12/29 21:19:06;;;;;;;;;;;17.50;59.30;;;;;;10249432;28;93103;-45
2023/12/29 21:24:08;;;;;;;;;;;17.40;59.70;;;;;;10235938;28;93401;-42
2023/12/29 21:29:10;;;;;;;;;;;17.20;59.90;;;;;;10246243;28;93963;-45
2023/12/29 21:34:12;;;;;;;;;;;17.10;60.20;;;;;;10245119;28;95678;-43
2023/12/29 21:39:14;;;;;;;;;;;17.00;60.40;;;;;;10247069;28;94399;-46
2023/12/29 21:44:16;;;;;;;;;;;16.80;60.60;;;;;;10247425;28;94874;-43
2023/12/29 21:49:18;;;;;;;;;;;16.70;60.80;;;;;;10246272;28;93468;-43
2023/12/29 21:54:20;;;;;;;;;;;16.60;61.00;;;;;;10247631;28;93423;-45
2023/12/29 21:59:22;;;;;;;;;;;16.50;61.20;;;;;;10237851;28;94483;-43
2023/12/29 22:04:24;;;;;;;;;;;16.50;61.40;;;;;;10241663;28;94437;-42
2023/12/29 22:09:27;;;;;;;;;;;16.40;61.50;;;;;;10246965;28;93437;-44
2023/12/29 22:14:28;;;;;;;;;;;16.30;61.70;;;;;;10245306;28;93482;-43
2023/12/29 22:19:30;;;;;;;;;;;16.30;61.90;;;;;;10246094;28;94090;-47
2023/12/29 22:24:33;;;;;;;;;;;16.20;61.90;;;;;;10235551;28;97088;-43
2023/12/29 22:29:37;;;;;;;;;;;16.10;62.00;;;;;;10246379;28;94436;-42
2023/12/29 22:34:40;;;;;;;;;;;16.00;62.10;;;;;;10234628;28;95309;-46
2023/12/29 22:39:42;;;;;;;;;;;16.00;62.20;;;;;;10235912;28;93289;-44
2023/12/29 22:44:45;;;;;;;;;;;16.00;62.40;;;;;;10228856;28;94674;-44
2023/12/29 22:49:48;;;;;;;;;;;16.00;62.60;;;;;;10238959;28;93435;-44
2023/12/29 22:54:49;;;;;;;;;;;15.90;62.60;;;;;;10239626;28;94253;-44
2023/12/29 22:59:52;;;;;;;;;;;15.90;62.80;;;;;;10231025;28;92140;-45
2023/12/29 23:04:53;;;;;;;;;;;15.80;62.70;;;;;;10230904;28;94569;-45
2023/12/29 23:09:55;;;;;;;;;;;15.80;62.80;;;;;;10244466;28;93355;-45
2023/12/29 23:14:57;;;;;;;;;;;15.70;62.70;;;;;;10239738;28;96760;-45
2023/12/29 23:19:58;;;;;;;;;;;15.70;62.30;;;;;;10243515;28;93437;-46
2023/12/29 23:25:00;;;;;;;;;;;15.70;61.90;;;;;;10230976;28;94848;-44
2023/12/29 23:30:03;;;;;;;;;;;15.60;61.50;;;;;;10243679;28;94443;-43
2023/12/29 23:35:05;;;;;;;;;;;15.60;61.30;;;;;;10242687;28;93955;-44
2023/12/29 23:40:20;;;;;;;;;;;15.60;60.90;;;;;;10236177;28;94474;-45
2023/12/29 23:45:22;;;;;;;;;;;15.60;60.70;;;;;;10240138;28;93533;-45
2023/12/29 23:50:24;;;;;;;;;;;15.60;60.50;;;;;;10252095;28;92644;-45
2023/12/29 23:55:26;;;;;;;;;;;15.60;60.30;;;;;;10243472;28;97613;-45
